Airfield :
LOGIN :

Register | Disclaimer

   EN    FR    IT 

 










Legend :    VFR   Marginal VFR   IFR   Intensive IFR   Very Intensive IFR
Visi :
Ceiling :
>= 8 km
>= 3000ft
5 to 8 km
1000 to 3000 ft
1500m to 5 km
500 to 1000 ft
800 to 1500m
200 to 500 ft
< 800m
< 200 ft
Symbols :   Thunderstorms  Fog  Heavy snow  Heavy precipitations  Wind > 20 kt
SIGMETs :     Misc.  Thunderstorms  Icing  Turbulence  Mountain Waves  Volcanic Ashes






- Airport Elevation : 622 ft
- IATA code : BRS


EGGD - Bristol Int.

CURRENT METAR :
  • 270850Z AUTO 23007KT 0250 R27/0600 FG VV/// 08/08 Q1012

EXPIRED METARs :
  • 270820Z AUTO 24007KT 0250 R27/0550 FG VV/// 08/08 Q1011
  • 270750Z AUTO 24007KT 0200 R27/0800 FG VV/// 08/08 Q1011
  • 270720Z AUTO 24007KT 0150 R27/0650 FG VV/// 08/08 Q1011
  • 270650Z AUTO 25007KT 0500 R27/P1500 FG VV/// 08/08 Q1011
  • 270620Z AUTO 26009KT 0250 FG VV/// 08/08 Q1011

TAF TAF EGGD
Valid from the 27 at 06:00 until the 28 at 06:00 UTC


270456Z 2706/2806 26010KT 0200 FG VV///
TEMPO 2706/2806 RADZ
PROB30
TEMPO 2706/2718 1500 BR SCT001 BKN002
BECMG 2715/2718 17005KT
PROB40
TEMPO 2718/2723 6000 -RA FEW001 BKN015
BECMG 2721/2724 23012KT
TEMPO 2803/2806 24018G30KT 3000 BR BKN004
ATIS : +44 1275 473 666



MET'MAP, your aeronautical weather chart ! - Copyright ORBIFLY December 2007 - Disclaimer

ORBIFLY MET'MAP TEAM :

Programming & Development : Alexandra Zaïnal
Concept & original design : Baudouin d'Aumeries
Assistance for programming : Marc-Olivier Méhu
Technical & hardware support : Manuel Goepfert

Contact : metmap@orbifly.com




SOURCES & CREDITS :

   NOAA